Private Wetterstation Sandau
Wetterdaten: November 2012
Datum Temp. A. Feuchte A. Luftdruck Regen Wind Richtung Taupunkt Windchill
01.11.2012 6,3 C 89 % 989,7 hPa 0,5 l/m 10,7 km/h (2 Bft) SO 4,6 C 4,2 C
02.11.2012 6,8 C 76 % 999,0 hPa 1,0 l/m 10,1 km/h (2 Bft) S-SW 2,8 C 4,9 C
03.11.2012 6,5 C 86 % 1001,0 hPa 3,1 l/m 4,3 km/h (1 Bft) W-SW 4,3 C 5,9 C
04.11.2012 6,8 C 89 % 1000,8 hPa 2,1 l/m 3,5 km/h (1 Bft) SO 5,0 C 6,8 C
05.11.2012 6,9 C 84 % 1000,5 hPa 0,5 l/m 10,0 km/h (2 Bft) W-SW 4,4 C 5,4 C
06.11.2012 6,2 C 83 % 1012,1 hPa 1,0 l/m 14,9 km/h (3 Bft) W 3,4 C 3,7 C
07.11.2012 9,7 C 86 % 1017,3 hPa 2,6 l/m 13,1 km/h (3 Bft) W 7,4 C 8,1 C
08.11.2012 9,0 C 84 % 1014,6 hPa 0,0 l/m 10,7 km/h (2 Bft) W-SW 6,3 C 7,3 C
09.11.2012 8,7 C 84 % 1015,8 hPa 0,0 l/m 7,2 km/h (2 Bft) W-SW 6,2 C 7,8 C
10.11.2012 7,3 C 87 % 1004,6 hPa 3,1 l/m 3,3 km/h (1 Bft) SO 5,2 C 6,9 C
11.11.2012 8,4 C 87 % 1012,9 hPa 0,0 l/m 3,4 km/h (1 Bft) W-SW 6,2 C 8,1 C
12.11.2012 6,9 C 85 % 1026,1 hPa 0,0 l/m 8,8 km/h (2 Bft) W-SW 4,6 C 5,7 C
13.11.2012 4,2 C 84 % 1033,1 hPa 0,0 l/m 1,8 km/h (1 Bft) S-SO 1,7 C 4,0 C
14.11.2012 2,2 C 88 % 1030,8 hPa 0,0 l/m 0,6 km/h (0 Bft) O-SO 0,4 C 2,2 C
15.11.2012 -1,5 C 93 % 1025,5 hPa 0,0 l/m 0,0 km/h (0 Bft) SO -2,6 C -1,5 C
16.11.2012 0,8 C 91 % 1020,9 hPa 0,0 l/m 2,5 km/h (1 Bft) S-SO -0,6 C 0,8 C
17.11.2012 2,4 C 89 % 1012,9 hPa 0,0 l/m 3,7 km/h (1 Bft) SO 0,7 C 1,5 C
18.11.2012 5,2 C 93 % 1014,6 hPa 1,0 l/m 2,8 km/h (1 Bft) S-SW 4,2 C 4,7 C
19.11.2012 5,0 C 94 % 1020,6 hPa 0,5 l/m 4,3 km/h (1 Bft) SO 4,1 C 4,2 C
20.11.2012 5,6 C 94 % 1021,6 hPa 0,0 l/m 4,8 km/h (1 Bft) SO 4,7 C 5,1 C
21.11.2012 5,2 C 92 % 1017,5 hPa 0,0 l/m 7,2 km/h (2 Bft) SO 4,0 C 3,6 C
22.11.2012 5,5 C 88 % 1022,7 hPa 0,0 l/m 4,4 km/h (1 Bft) W-SW 3,7 C 4,8 C
23.11.2012 4,2 C 92 % 1019,4 hPa 4,1 l/m 3,9 km/h (1 Bft) SO 2,9 C 3,6 C
24.11.2012 5,3 C 94 % 1020,3 hPa 0,5 l/m 5,2 km/h (1 Bft) O-SO 4,5 C 4,5 C
25.11.2012 7,7 C 82 % 1010,6 hPa 1,6 l/m 15,3 km/h (3 Bft) SO 4,7 C 5,3 C
26.11.2012 7,0 C 83 % 1007,4 hPa 2,1 l/m 3,5 km/h (1 Bft) S-SW 4,3 C 6,7 C
27.11.2012 7,1 C 91 % 1006,3 hPa 0,5 l/m 1,6 km/h (1 Bft) S-SW 5,8 C 6,9 C
28.11.2012 5,6 C 93 % 1004,5 hPa 0,5 l/m 1,8 km/h (1 Bft) N-NO 4,6 C 5,6 C
29.11.2012 3,4 C 87 % 999,4 hPa 0,0 l/m 9,3 km/h (2 Bft) N-NO 1,3 C 0,9 C
30.11.2012 0,6 C 88 % 1008,5 hPa 0,5 l/m 6,9 km/h (2 Bft) NW -1,2 C -1,6 C
Min-Datum 15.11.12 02.11.12 01.11.12 17 Tage 01.11.12 - 15.11.12 15.11.12
Min-Zeit 05:11 12:11 17:41 - 08:06 - 05:11 10:46
Minimum -3,1 C 64 % 988,0 hPa - 0,0 km/h (0 Bft) - -4,2 C -7,8 C
Max-Datum 11.11.12 19.11.12 14.11.12 23.11.12 06.11.12 - 11.11.12 11.11.12
Max-Zeit 12:06 12:56 00:41 19:36 22:56 - 10:36 12:06
Maximum 11,8 C 95 % 1034,3 hPa 4,1 l/m 46,4 km/h
W (6 Bft)
- 9,2 C 11,8 C
Durchschnitt 5,5 C 88 % 1013,0 hPa #25,4 l/m 6,0 km/h (2 Bft) SO 3,6 C 4,5 C

Durchschnitt Minimum Temp.3,0 C
Durchschnitt Maximum Temp.7,9 C
(c) by David Heller